Time;durP1;ratioP1;P1;durP2;ratioP2;P2;SDS_P1;SDS_P2;PMS_P1;PMS_P2;Temp;Humidity;BMP_temperature;BMP_pressure;BME280_temperature;BME280_humidity;BME280_pressure;Samples;Min_cycle;Max_cycle;Signal;HPM_P1;HPM_P2
2023/09/14 00:00:08;;;;;;;;;;;;;;;24.79;48.64;100780.78;7394294;19;1830;-37
2023/09/14 00:02:36;;;;;;;;;;;;;;;24.71;48.71;100780.75;7397408;19;1427;-37
2023/09/14 00:05:05;;;;;;;;;;;;;;;24.80;48.70;100785.97;7396773;19;1647;-37
2023/09/14 00:07:33;;;;;;;;;;;;;;;24.72;48.56;100763.53;7395609;19;1494;-37
2023/09/14 00:10:04;;;;;;;;;;;;;;;24.83;48.77;100787.50;7396760;19;1562;-37
2023/09/14 00:12:33;;;;;;;;;;;;;;;24.79;48.75;100775.34;7395539;19;1591;-37
2023/09/14 00:15:02;;;;;;;;;;;;;;;24.75;48.75;100763.16;7394272;19;1780;-37
2023/09/14 00:17:31;;;;;;;;;;;;;;;24.78;48.59;100777.19;7395697;19;1883;-37
2023/09/14 00:19:59;;;;;;;;;;;;;;;24.77;48.56;100766.53;7393022;19;1863;-36
2023/09/14 00:22:27;;;;;;;;;;;;;;;24.79;48.52;100764.53;7394710;19;1525;-37
2023/09/14 00:24:56;;;;;;;;;;;;;;;24.79;48.34;100773.50;7378692;19;1402;-37
2023/09/14 00:27:26;;;;;;;;;;;;;;;24.81;48.40;100774.16;7394358;19;1378;-37
2023/09/14 00:29:55;;;;;;;;;;;;;;;24.76;48.28;100765.72;7393351;19;1495;-37
2023/09/14 00:32:23;;;;;;;;;;;;;;;24.78;48.48;100774.50;7395722;19;1642;-37
2023/09/14 00:34:51;;;;;;;;;;;;;;;24.74;48.36;100770.44;7393127;19;1545;-37
2023/09/14 00:37:20;;;;;;;;;;;;;;;24.70;48.38;100779.94;7393866;19;1532;-37
2023/09/14 00:39:48;;;;;;;;;;;;;;;24.74;48.48;100777.72;7393168;19;1869;-37
2023/09/14 00:42:16;;;;;;;;;;;;;;;24.76;48.27;100778.41;7393211;19;1476;-37
2023/09/14 00:44:47;;;;;;;;;;;;;;;24.77;48.36;100777.38;7389576;19;1500;-37
2023/09/14 00:47:15;;;;;;;;;;;;;;;24.78;48.68;100792.59;7394171;19;1514;-37
2023/09/14 00:49:44;;;;;;;;;;;;;;;24.75;48.41;100768.59;7394646;19;1399;-36
2023/09/14 00:52:13;;;;;;;;;;;;;;;24.71;48.43;100778.06;7394653;19;1716;-37
2023/09/14 00:54:42;;;;;;;;;;;;;;;24.68;48.41;100783.84;7394936;19;1721;-37
2023/09/14 00:57:10;;;;;;;;;;;;;;;24.72;48.45;100779.75;7401791;19;1733;-37
2023/09/14 00:59:39;;;;;;;;;;;;;;;24.69;48.59;100786.38;7400644;19;1856;-37
2023/09/14 01:02:10;;;;;;;;;;;;;;;24.67;48.36;100782.13;7402157;19;1809;-37
2023/09/14 01:04:39;;;;;;;;;;;;;;;24.69;48.67;100785.50;7401728;19;1887;-37
2023/09/14 01:07:07;;;;;;;;;;;;;;;24.69;48.46;100791.78;7401234;19;1493;-37
2023/09/14 01:09:35;;;;;;;;;;;;;;;24.69;48.33;100769.28;7401877;19;1553;-37
2023/09/14 01:12:04;;;;;;;;;;;;;;;24.71;48.43;100775.34;7402233;19;1498;-37
2023/09/14 01:14:37;;;;;;;;;;;;;;;24.67;48.65;100776.72;7401847;19;1485;-37
2023/09/14 01:17:09;;;;;;;;;;;;;;;24.68;48.45;100783.84;7398920;19;1593;-37
2023/09/14 01:19:48;;;;;;;;;;;;;;;24.64;48.63;100767.09;7400123;19;1898;-37
2023/09/14 01:22:24;;;;;;;;;;;;;;;24.68;48.72;100763.03;7399980;19;1607;-37
2023/09/14 01:24:54;;;;;;;;;;;;;;;24.69;48.41;100763.88;7386302;19;1740;-37
2023/09/14 01:27:26;;;;;;;;;;;;;;;24.70;48.61;100765.56;7401102;19;1551;-36
2023/09/14 01:29:54;;;;;;;;;;;;;;;24.69;48.54;100774.69;7401021;19;1876;-37
2023/09/14 01:32:22;;;;;;;;;;;;;;;24.67;48.74;100780.28;7401289;19;1666;-37
2023/09/14 01:34:51;;;;;;;;;;;;;;;24.63;48.52;100759.16;7400631;19;1484;-37
2023/09/14 01:37:19;;;;;;;;;;;;;;;24.65;48.58;100762.53;7400590;19;1492;-37
2023/09/14 01:39:48;;;;;;;;;;;;;;;24.63;48.69;100776.25;7397254;19;1841;-37
2023/09/14 01:42:17;;;;;;;;;;;;;;;24.60;48.48;100773.88;7400143;19;1443;-37
2023/09/14 01:44:48;;;;;;;;;;;;;;;24.58;48.60;100774.03;7401521;19;1498;-37
2023/09/14 01:47:16;;;;;;;;;;;;;;;24.63;48.67;100780.78;7400567;19;1553;-37
2023/09/14 01:49:45;;;;;;;;;;;;;;;24.60;48.46;100766.59;7401921;19;1372;-37
2023/09/14 01:52:13;;;;;;;;;;;;;;;24.59;48.63;100778.44;7400348;19;1812;-54
2023/09/14 01:54:41;;;;;;;;;;;;;;;24.62;48.68;100774.53;7401191;19;1518;-37
2023/09/14 01:57:10;;;;;;;;;;;;;;;24.59;48.64;100766.75;7399906;19;1524;-57
2023/09/14 01:59:38;;;;;;;;;;;;;;;24.59;48.57;100764.06;7396762;19;1836;-58
2023/09/14 02:02:09;;;;;;;;;;;;;;;24.60;48.43;100766.59;7399177;19;1503;-37
2023/09/14 02:04:38;;;;;;;;;;;;;;;24.61;48.54;100768.31;7400391;19;1673;-37
2023/09/14 02:07:06;;;;;;;;;;;;;;;24.49;48.80;100772.34;7398612;19;1476;-37
2023/09/14 02:09:34;;;;;;;;;;;;;;;24.60;48.67;100763.91;7400633;19;1412;-37
2023/09/14 02:12:03;;;;;;;;;;;;;;;24.59;48.64;100767.63;7399420;19;1522;-37
2023/09/14 02:14:31;;;;;;;;;;;;;;;24.51;48.95;100756.84;7399179;19;1366;-38
2023/09/14 02:17:00;;;;;;;;;;;;;;;24.53;48.61;100759.34;7399537;19;1837;-37
2023/09/14 02:19:30;;;;;;;;;;;;;;;24.56;48.59;100762.56;7398949;19;1853;-37
2023/09/14 02:21:59;;;;;;;;;;;;;;;24.53;48.64;100757.50;7399304;19;1989;-37
2023/09/14 02:24:27;;;;;;;;;;;;;;;24.58;48.64;100760.53;7398932;19;1442;-37
2023/09/14 02:26:55;;;;;;;;;;;;;;;24.56;48.62;100759.84;7383581;19;1599;-45
2023/09/14 02:29:24;;;;;;;;;;;;;;;24.55;48.55;100757.31;7398872;19;1603;-37
2023/09/14 02:31:52;;;;;;;;;;;;;;;24.53;48.30;100754.81;7399823;19;1488;-37
2023/09/14 02:34:20;;;;;;;;;;;;;;;24.51;48.58;100756.84;7396244;19;1643;-37
2023/09/14 02:36:51;;;;;;;;;;;;;;;24.52;48.69;100763.91;7398325;19;1811;-37
2023/09/14 02:39:19;;;;;;;;;;;;;;;24.47;48.50;100766.28;7398535;19;1849;-37
2023/09/14 02:41:48;;;;;;;;;;;;;;;24.49;48.59;100764.25;7399818;19;1475;-37
2023/09/14 02:44:13;;;;;;;;;;;;;;;24.50;48.44;100774.06;7399018;19;1574;-37
2023/09/14 02:46:42;;;;;;;;;;;;;;;24.50;48.40;100765.94;7399251;19;1495;-37
2023/09/14 02:49:10;;;;;;;;;;;;;;;24.55;48.36;100770.81;7398544;19;1739;-36
2023/09/14 02:51:38;;;;;;;;;;;;;;;24.46;48.56;100772.69;7398223;19;1686;-37
2023/09/14 02:54:09;;;;;;;;;;;;;;;24.45;48.47;100770.16;7399064;19;1484;-37
2023/09/14 02:56:39;;;;;;;;;;;;;;;24.47;48.59;100787.91;7398114;19;1996;-37
2023/09/14 02:59:07;;;;;;;;;;;;;;;24.43;48.38;100770.31;7397530;19;1842;-36
2023/09/14 03:01:36;;;;;;;;;;;;;;;24.38;48.41;100778.94;7399434;19;1832;-37
2023/09/14 03:04:05;;;;;;;;;;;;;;;24.44;48.76;100784.69;7397414;19;1603;-37
2023/09/14 03:06:34;;;;;;;;;;;;;;;24.38;48.56;100768.13;7396089;19;2511;-37
2023/09/14 03:09:02;;;;;;;;;;;;;;;24.36;48.35;100770.16;7397960;19;1480;-36
2023/09/14 03:11:33;;;;;;;;;;;;;;;24.37;48.63;100749.38;7398516;19;1524;-37
2023/09/14 03:14:02;;;;;;;;;;;;;;;24.37;48.45;100771.00;7398853;19;1484;-37
2023/09/14 03:16:30;;;;;;;;;;;;;;;24.33;48.66;100767.81;7397500;19;1846;-36
2023/09/14 03:18:58;;;;;;;;;;;;;;;24.34;48.39;100772.19;7393672;19;1864;-37
2023/09/14 03:21:27;;;;;;;;;;;;;;;24.30;48.50;100760.03;7396720;19;1790;-37
2023/09/14 03:23:55;;;;;;;;;;;;;;;24.30;48.68;100764.59;7396896;19;1373;-42
2023/09/14 03:26:27;;;;;;;;;;;;;;;24.23;48.65;100772.53;7381624;19;1431;-37
2023/09/14 03:28:58;;;;;;;;;;;;;;;24.27;48.45;100775.75;7397728;19;1482;-37
2023/09/14 03:31:26;;;;;;;;;;;;;;;24.18;48.81;100783.03;7398029;19;1619;-37
2023/09/14 03:33:54;;;;;;;;;;;;;;;24.18;48.69;100783.84;7397225;19;1616;-36
2023/09/14 03:36:23;;;;;;;;;;;;;;;24.22;48.50;100785.19;7396483;19;1631;-36
2023/09/14 03:38:51;;;;;;;;;;;;;;;24.16;48.80;100783.19;7397854;19;1212;-37
2023/09/14 03:41:19;;;;;;;;;;;;;;;24.20;48.49;100781.81;7395181;19;1846;-37
2023/09/14 03:43:48;;;;;;;;;;;;;;;24.13;48.89;100778.13;7392378;19;1751;-37
2023/09/14 03:46:19;;;;;;;;;;;;;;;24.20;48.84;100792.63;7395583;19;1626;-37
2023/09/14 03:48:47;;;;;;;;;;;;;;;24.25;49.40;100796.69;7395110;19;1764;-37
2023/09/14 03:51:15;;;;;;;;;;;;;;;24.24;48.63;100792.31;7396028;19;1425;-37
2023/09/14 03:53:43;;;;;;;;;;;;;;;24.17;48.75;100793.00;7390693;19;1476;-37
2023/09/14 03:56:12;;;;;;;;;;;;;;;24.08;49.09;100804.81;7394066;19;1859;-37
2023/09/14 03:58:42;;;;;;;;;;;;;;;24.11;48.67;100809.84;7395775;19;1848;-37
2023/09/14 04:01:10;;;;;;;;;;;;;;;23.86;49.27;100805.47;7393591;19;1872;-46
2023/09/14 04:03:41;;;;;;;;;;;;;;;23.84;49.22;100807.50;7393615;19;1499;-37
2023/09/14 04:06:09;;;;;;;;;;;;;;;23.88;49.79;100792.63;7396943;19;1226;-37
2023/09/14 04:08:40;;;;;;;;;;;;;;;24.10;49.29;100808.19;7393281;19;1483;-36
2023/09/14 04:11:09;;;;;;;;;;;;;;;24.39;48.80;100801.41;7388733;19;1490;-36
2023/09/14 04:13:38;;;;;;;;;;;;;;;24.68;48.66;100809.00;7395824;19;1549;-36
2023/09/14 04:16:07;;;;;;;;;;;;;;;24.63;49.01;100803.28;7391874;19;1926;-37
2023/09/14 04:18:38;;;;;;;;;;;;;;;24.73;49.01;100808.47;7393626;19;1822;-37
2023/09/14 04:21:09;;;;;;;;;;;;;;;24.72;49.01;100804.09;7395173;19;1850;-37
2023/09/14 04:23:37;;;;;;;;;;;;;;;24.67;49.39;100801.94;7394869;19;1659;-37
2023/09/14 04:26:06;;;;;;;;;;;;;;;24.61;49.61;100806.16;7376930;19;1733;-37
2023/09/14 04:28:34;;;;;;;;;;;;;;;24.59;49.67;100805.47;7392878;19;1777;-36
2023/09/14 04:31:08;;;;;;;;;;;;;;;24.61;49.38;100799.88;7394212;19;1715;-36
2023/09/14 04:33:36;;;;;;;;;;;;;;;24.60;49.90;100790.09;7392518;19;1673;-37
2023/09/14 04:36:05;;;;;;;;;;;;;;;24.59;49.95;100794.66;7393513;19;1622;-36
2023/09/14 04:38:36;;;;;;;;;;;;;;;24.70;49.64;100812.38;7392749;19;1961;-37
2023/09/14 04:41:05;;;;;;;;;;;;;;;24.76;49.67;100802.72;7393579;19;1896;-36
2023/09/14 04:43:34;;;;;;;;;;;;;;;24.76;49.85;100791.91;7395888;19;1990;-37
2023/09/14 04:46:04;;;;;;;;;;;;;;;24.81;49.89;100800.38;7396328;19;1454;-36
2023/09/14 04:48:32;;;;;;;;;;;;;;;24.78;50.02;100800.69;7395835;19;1511;-36
2023/09/14 04:51:01;;;;;;;;;;;;;;;24.73;50.24;100811.19;7395972;19;1549;-37
2023/09/14 04:53:30;;;;;;;;;;;;;;;24.68;50.28;100810.88;7395759;19;1431;-37
2023/09/14 04:56:01;;;;;;;;;;;;;;;24.69;50.22;100802.59;7395759;19;1515;-37
2023/09/14 04:58:29;;;;;;;;;;;;;;;24.77;50.28;100812.53;7396554;19;1842;-37
2023/09/14 05:00:57;;;;;;;;;;;;;;;24.74;50.30;100805.59;7395982;19;1841;-37
2023/09/14 05:03:25;;;;;;;;;;;;;;;24.78;50.21;100808.81;7394540;19;1493;-37
2023/09/14 05:05:55;;;;;;;;;;;;;;;24.87;50.14;100805.09;7396984;19;1054;-36
2023/09/14 05:08:23;;;;;;;;;;;;;;;24.88;49.85;100801.34;7395337;19;1946;-36
2023/09/14 05:10:52;;;;;;;;;;;;;;;24.88;49.97;100801.34;7395424;19;1863;-37
2023/09/14 05:13:24;;;;;;;;;;;;;;;24.88;49.86;100784.28;7396208;19;1810;-36
2023/09/14 05:15:53;;;;;;;;;;;;;;;24.92;49.76;100813.50;7395592;19;1361;-36
2023/09/14 05:18:21;;;;;;;;;;;;;;;24.94;50.01;100818.75;7394390;19;1369;-37
2023/09/14 05:20:50;;;;;;;;;;;;;;;24.93;50.03;100815.22;7393416;19;1848;-37
2023/09/14 05:23:18;;;;;;;;;;;;;;;24.96;50.06;100814.84;7393829;19;1383;-37
2023/09/14 05:25:47;;;;;;;;;;;;;;;24.95;50.08;100823.16;7378882;19;1728;-37
2023/09/14 05:28:15;;;;;;;;;;;;;;;24.92;50.11;100812.66;7396060;19;1839;-37
2023/09/14 05:30:46;;;;;;;;;;;;;;;25.04;49.96;100821.25;7395831;19;1698;-37
2023/09/14 05:33:14;;;;;;;;;;;;;;;24.91;50.18;100811.84;7392767;19;1426;-36
2023/09/14 05:35:43;;;;;;;;;;;;;;;24.95;50.31;100807.75;7392355;19;1552;-37
2023/09/14 05:38:11;;;;;;;;;;;;;;;24.93;50.29;100798.97;7396552;19;1810;-37
2023/09/14 05:40:40;;;;;;;;;;;;;;;24.91;50.47;100813.66;7393978;19;1849;-37
2023/09/14 05:43:08;;;;;;;;;;;;;;;24.88;50.37;100792.41;7402310;19;1388;-37
2023/09/14 05:45:36;;;;;;;;;;;;;;;24.82;50.62;100796.63;7400730;19;1438;-37
2023/09/14 05:48:08;;;;;;;;;;;;;;;24.79;50.83;100811.34;7401790;19;1701;-37
2023/09/14 05:50:36;;;;;;;;;;;;;;;24.80;50.61;100815.72;7402352;19;1534;-37
2023/09/14 05:53:04;;;;;;;;;;;;;;;24.80;50.69;100804.91;7403178;19;1810;-37
2023/09/14 05:55:33;;;;;;;;;;;;;;;24.81;50.83;100803.06;7401024;19;1740;-37
2023/09/14 05:58:01;;;;;;;;;;;;;;;24.83;50.85;100803.75;7401648;19;1506;-36
2023/09/14 06:00:29;;;;;;;;;;;;;;;24.80;50.99;100802.22;7399552;19;1834;-36
2023/09/14 06:02:57;;;;;;;;;;;;;;;24.83;50.78;100803.75;7401263;19;1557;-37
2023/09/14 06:05:28;;;;;;;;;;;;;;;24.82;50.92;100796.63;7401108;19;1411;-36
2023/09/14 06:07:57;;;;;;;;;;;;;;;24.80;50.99;100787.84;7402673;19;1810;-37
2023/09/14 06:10:25;;;;;;;;;;;;;;;24.85;50.91;100803.53;7400638;19;1836;-37
2023/09/14 06:12:53;;;;;;;;;;;;;;;24.82;50.85;100802.03;7400718;19;1740;-37
2023/09/14 06:15:21;;;;;;;;;;;;;;;24.80;51.07;100799.50;7400331;19;1698;-37
2023/09/14 06:17:50;;;;;;;;;;;;;;;24.84;50.90;100816.22;7399802;19;1814;-36
2023/09/14 06:20:18;;;;;;;;;;;;;;;24.80;50.99;100793.25;7401240;19;1842;-37
2023/09/14 06:22:49;;;;;;;;;;;;;;;24.83;50.98;100792.94;7400559;19;1732;-37
2023/09/14 06:25:17;;;;;;;;;;;;;;;24.84;51.05;100812.69;7400667;19;1808;-37
2023/09/14 06:27:46;;;;;;;;;;;;;;;24.86;51.11;100799.84;7387512;19;1114;-37
2023/09/14 06:30:14;;;;;;;;;;;;;;;24.86;51.10;100800.69;7401014;19;1939;-37
2023/09/14 06:32:43;;;;;;;;;;;;;;;24.85;50.97;100796.31;7401783;19;1681;-37
2023/09/14 06:35:11;;;;;;;;;;;;;;;24.88;51.04;100806.75;7400604;19;1859;-37
2023/09/14 06:37:39;;;;;;;;;;;;;;;24.87;51.02;100786.16;7400811;19;1669;-37
2023/09/14 06:40:11;;;;;;;;;;;;;;;24.90;51.00;100820.94;7399680;19;1846;-37
2023/09/14 06:42:39;;;;;;;;;;;;;;;24.88;51.01;100801.34;7400290;19;1838;-37
2023/09/14 06:45:08;;;;;;;;;;;;;;;24.91;51.18;100813.66;7399764;19;1841;-37
2023/09/14 06:47:37;;;;;;;;;;;;;;;24.92;51.23;100810.78;7399861;19;1526;-37
2023/09/14 06:50:05;;;;;;;;;;;;;;;24.88;51.15;100817.56;7400753;19;1393;-37
2023/09/14 06:52:34;;;;;;;;;;;;;;;24.91;51.24;100824.50;7398703;19;1787;-37
2023/09/14 06:55:02;;;;;;;;;;;;;;;24.91;51.24;100824.50;7399792;19;1891;-37
2023/09/14 06:57:33;;;;;;;;;;;;;;;24.92;51.00;100821.63;7400990;19;1736;-36
2023/09/14 07:00:07;;;;;;;;;;;;;;;24.91;51.17;100817.25;7397269;19;1958;-37
2023/09/14 07:02:35;;;;;;;;;;;;;;;24.94;51.01;100830.41;7397801;19;1861;-37
2023/09/14 07:05:04;;;;;;;;;;;;;;;24.94;51.13;100816.88;7399511;19;1472;-37
2023/09/14 07:07:32;;;;;;;;;;;;;;;24.97;51.04;100815.72;7400229;19;1410;-36
2023/09/14 07:10:01;;;;;;;;;;;;;;;24.95;51.05;100818.59;7397686;19;1752;-37
2023/09/14 07:12:29;;;;;;;;;;;;;;;24.94;51.07;100827.69;7397877;19;1955;-37
2023/09/14 07:15:00;;;;;;;;;;;;;;;24.95;51.10;100824.00;7399938;19;1720;-37
2023/09/14 07:17:29;;;;;;;;;;;;;;;24.97;51.09;100816.53;7396467;19;1806;-36
2023/09/14 07:19:57;;;;;;;;;;;;;;;24.96;51.15;100825.66;7398743;19;1569;-37
2023/09/14 07:22:25;;;;;;;;;;;;;;;24.99;51.30;100838.84;7397456;19;1891;-37
2023/09/14 07:24:54;;;;;;;;;;;;;;;24.97;51.20;100824.66;7400501;19;1550;-37
2023/09/14 07:27:22;;;;;;;;;;;;;;;25.01;51.32;100825.16;7382709;19;2357;-37
2023/09/14 07:29:51;;;;;;;;;;;;;;;25.01;51.40;100834.13;7398665;19;1934;-37
2023/09/14 07:32:22;;;;;;;;;;;;;;;25.00;51.42;100843.22;7399392;19;1701;-37
2023/09/14 07:34:50;;;;;;;;;;;;;;;24.97;51.23;100827.38;7398847;19;1688;-37
2023/09/14 07:37:18;;;;;;;;;;;;;;;24.99;51.36;100830.75;7399412;19;1601;-37
2023/09/14 07:39:46;;;;;;;;;;;;;;;25.00;51.29;100837.81;7398476;19;1395;-37
2023/09/14 07:42:15;;;;;;;;;;;;;;;25.00;51.34;100827.00;7396679;19;1930;-37
2023/09/14 07:44:43;;;;;;;;;;;;;;;25.02;51.30;100833.09;7398366;19;1938;-37
2023/09/14 07:47:11;;;;;;;;;;;;;;;25.02;51.20;100833.09;7397096;19;1748;-37
2023/09/14 07:49:45;;;;;;;;;;;;;;;25.05;51.25;100829.22;7398611;19;1720;-37
2023/09/14 07:52:13;;;;;;;;;;;;;;;25.00;51.17;100827.00;7399283;19;1555;-37
2023/09/14 07:54:42;;;;;;;;;;;;;;;25.02;51.14;100841.19;7398201;19;1862;-36
2023/09/14 07:57:10;;;;;;;;;;;;;;;25.04;51.37;100821.25;7397754;19;1659;-37
2023/09/14 07:59:38;;;;;;;;;;;;;;;25.04;51.30;100821.25;7397985;19;1759;-37
2023/09/14 08:02:07;;;;;;;;;;;;;;;25.04;51.43;100813.97;7397375;19;1855;-37
2023/09/14 08:04:36;;;;;;;;;;;;;;;25.05;51.30;100814.81;7397081;19;1830;-37
2023/09/14 08:07:07;;;;;;;;;;;;;;;25.07;51.28;100820.88;7396173;19;1817;-37
2023/09/14 08:09:35;;;;;;;;;;;;;;;25.05;51.12;100826.50;7397861;19;1747;-36
2023/09/14 08:12:03;;;;;;;;;;;;;;;25.09;51.30;100824.25;7397019;19;1566;-37
2023/09/14 08:14:31;;;;;;;;;;;;;;;25.07;51.34;100810.06;7397385;19;1554;-37
2023/09/14 08:17:00;;;;;;;;;;;;;;;25.08;51.53;100828.84;7396855;19;1518;-37
2023/09/14 08:19:28;;;;;;;;;;;;;;;25.10;51.15;100810.56;7398724;19;1025;-37
2023/09/14 08:21:57;;;;;;;;;;;;;;;25.08;51.30;100825.31;7396757;19;1851;-36
2023/09/14 08:24:28;;;;;;;;;;;;;;;25.09;51.28;100821.56;7397298;19;1867;-37
2023/09/14 08:26:56;;;;;;;;;;;;;;;25.10;51.45;100815.16;7381985;19;1871;-37
2023/09/14 08:29:25;;;;;;;;;;;;;;;25.07;51.11;100796.53;7396916;19;1741;-36
2023/09/14 08:31:53;;;;;;;;;;;;;;;25.10;51.38;100799.75;7398661;19;1013;-37
2023/09/14 08:34:22;;;;;;;;;;;;;;;25.13;51.12;100798.56;7397201;19;1744;-37
2023/09/14 08:36:50;;;;;;;;;;;;;;;25.12;51.33;100803.13;7395691;19;1894;-37
2023/09/14 08:39:19;;;;;;;;;;;;;;;25.14;51.11;100802.94;7396273;19;1557;-37
2023/09/14 08:41:50;;;;;;;;;;;;;;;25.14;51.53;100802.94;7396033;19;1841;-37
2023/09/14 08:44:19;;;;;;;;;;;;;;;25.13;51.53;100810.22;7397495;19;1607;-37
2023/09/14 08:46:48;;;;;;;;;;;;;;;25.12;51.51;100799.56;7393864;19;1887;-37
2023/09/14 08:49:18;;;;;;;;;;;;;;;25.14;51.47;100797.53;7395382;19;1534;-37
2023/09/14 08:51:48;;;;;;;;;;;;;;;25.12;51.17;100789.59;7395620;19;1816;-37
2023/09/14 08:54:16;;;;;;;;;;;;;;;25.13;51.38;100783.16;7396192;19;1569;-37
2023/09/14 08:56:46;;;;;;;;;;;;;;;25.13;51.47;100780.47;7396628;19;1818;-37
2023/09/14 08:59:18;;;;;;;;;;;;;;;25.16;51.39;100790.91;7397255;19;1503;-37
2023/09/14 09:01:48;;;;;;;;;;;;;;;25.14;51.49;100776.72;7395262;19;1926;-37
2023/09/14 09:04:16;;;;;;;;;;;;;;;25.16;51.36;100763.03;7395671;19;1816;-37
2023/09/14 09:06:46;;;;;;;;;;;;;;;25.17;51.27;100767.44;7396096;19;1839;-37
2023/09/14 09:09:17;;;;;;;;;;;;;;;25.18;51.36;100764.53;7395367;19;1567;-37
2023/09/14 09:11:47;;;;;;;;;;;;;;;25.19;51.41;100759.97;7395747;19;1897;-37
2023/09/14 09:14:18;;;;;;;;;;;;;;;25.16;51.22;100760.31;7395570;19;1678;-37
2023/09/14 09:16:46;;;;;;;;;;;;;;;25.18;51.27;100769.09;7400887;19;944;-37
2023/09/14 09:19:15;;;;;;;;;;;;;;;25.22;51.50;100772.34;7403105;19;1960;-37
2023/09/14 09:21:44;;;;;;;;;;;;;;;25.17;51.40;100762.03;7400521;19;2566;-37
2023/09/14 09:24:14;;;;;;;;;;;;;;;25.19;51.39;100773.50;7402437;19;1872;-37
2023/09/14 09:26:44;;;;;;;;;;;;;;;25.17;51.60;100770.13;7388380;19;1736;-37
2023/09/14 09:29:19;;;;;;;;;;;;;;;25.16;51.36;100776.56;7403576;19;1792;-37
2023/09/14 09:31:50;;;;;;;;;;;;;;;25.16;51.44;100769.28;7404139;19;908;-37
2023/09/14 09:34:22;;;;;;;;;;;;;;;25.18;51.60;100767.22;7402408;19;1839;-37
2023/09/14 09:36:51;;;;;;;;;;;;;;;25.22;51.32;100758.81;7402293;19;1720;-37
2023/09/14 09:39:19;;;;;;;;;;;;;;;25.22;51.53;100759.63;7401193;19;1949;-37
2023/09/14 09:41:48;;;;;;;;;;;;;;;25.20;51.28;100753.53;7401661;19;1851;-37
2023/09/14 09:44:20;;;;;;;;;;;;;;;25.23;51.37;100766.75;7403118;19;1736;-37
2023/09/14 09:46:48;;;;;;;;;;;;;;;25.25;51.58;100764.72;7402901;19;1859;-37
2023/09/14 09:49:22;;;;;;;;;;;;;;;25.21;51.59;100739.00;7401934;19;1446;-37
2023/09/14 09:51:51;;;;;;;;;;;;;;;25.22;51.37;100758.81;7402186;19;1541;-37
2023/09/14 09:54:21;;;;;;;;;;;;;;;25.22;51.46;100739.88;7400942;19;1518;-37
2023/09/14 09:56:49;;;;;;;;;;;;;;;25.23;51.46;100755.94;7402615;19;1517;-37
2023/09/14 09:59:23;;;;;;;;;;;;;;;25.24;51.62;100760.31;7399098;19;1767;-37
2023/09/14 10:01:51;;;;;;;;;;;;;;;25.23;51.47;100755.94;7402203;19;1858;-37
2023/09/14 10:04:20;;;;;;;;;;;;;;;25.24;51.56;100752.19;7401796;19;1879;-37
2023/09/14 10:06:52;;;;;;;;;;;;;;;25.25;51.65;100745.78;7400759;19;1693;-37
2023/09/14 10:09:20;;;;;;;;;;;;;;;25.27;51.48;100748.28;7401256;19;2049;-37
2023/09/14 10:11:50;;;;;;;;;;;;;;;25.24;51.52;100745.94;7401383;19;1585;-37
2023/09/14 10:14:22;;;;;;;;;;;;;;;25.26;51.62;100755.56;7401823;19;1830;-37
2023/09/14 10:16:52;;;;;;;;;;;;;;;25.27;51.68;100751.84;7401813;19;1598;-37
2023/09/14 10:19:21;;;;;;;;;;;;;;;25.25;51.68;100745.78;7402100;19;1019;-37
2023/09/14 10:21:52;;;;;;;;;;;;;;;25.26;51.58;100739.31;7400470;19;1871;-37
2023/09/14 10:24:21;;;;;;;;;;;;;;;25.28;51.43;100729.16;7401395;19;1895;-37
2023/09/14 10:26:52;;;;;;;;;;;;;;;25.29;51.77;100744.38;7385286;19;1958;-37
2023/09/14 10:29:23;;;;;;;;;;;;;;;25.31;51.53;100731.53;7401364;19;1748;-37
2023/09/14 10:31:53;;;;;;;;;;;;;;;25.29;51.60;100725.44;7403088;19;1012;-37
2023/09/14 10:34:22;;;;;;;;;;;;;;;25.31;51.55;100725.28;7402014;19;1954;-37
2023/09/14 10:36:53;;;;;;;;;;;;;;;25.30;51.58;100719.00;7400670;19;1795;-36
2023/09/14 10:39:22;;;;;;;;;;;;;;;25.31;51.52;100714.44;7400397;19;1776;-37
2023/09/14 10:41:50;;;;;;;;;;;;;;;25.28;51.57;100703.97;7400682;19;1860;-37
2023/09/14 10:44:18;;;;;;;;;;;;;;;25.29;51.68;100709.19;7400929;19;1720;-37
2023/09/14 10:46:52;;;;;;;;;;;;;;;25.32;51.54;100702.59;7400921;19;1831;-37
2023/09/14 10:49:25;;;;;;;;;;;;;;;25.32;51.55;100706.13;7400486;19;1704;-37
2023/09/14 10:51:54;;;;;;;;;;;;;;;25.32;51.52;100710.69;7400074;19;1966;-36
2023/09/14 10:54:24;;;;;;;;;;;;;;;25.34;51.59;100705.94;7399479;19;1843;-37
2023/09/14 10:56:56;;;;;;;;;;;;;;;25.34;51.50;100704.06;7399374;19;1808;-37
2023/09/14 10:59:45;;;;;;;;;;;;;;;25.31;51.51;100681.97;7400126;19;1807;-37
2023/09/14 11:02:35;;;;;;;;;;;;;;;25.33;51.71;100707.81;7399479;19;2247;-37
2023/09/14 11:05:13;;;;;;;;;;;;;;;25.34;51.69;100700.53;7399736;19;2003;-37
2023/09/14 11:07:44;;;;;;;;;;;;;;;25.33;51.60;100691.59;7399441;19;1883;-37
2023/09/14 11:10:16;;;;;;;;;;;;;;;25.31;51.60;100685.50;7398525;19;1756;-37
2023/09/14 11:12:45;;;;;;;;;;;;;;;25.34;51.75;100693.25;7398630;19;1736;-37
2023/09/14 11:15:14;;;;;;;;;;;;;;;25.33;51.86;100686.16;7398639;19;1681;-37
2023/09/14 11:17:47;;;;;;;;;;;;;;;25.33;51.60;100685.34;7399216;19;1843;-37
2023/09/14 11:20:33;;;;;;;;;;;;;;;25.32;51.91;100684.47;7398969;19;1744;-37
2023/09/14 11:23:04;;;;;;;;;;;;;;;25.28;51.75;100672.31;7396517;19;2231;-37
2023/09/14 11:25:36;;;;;;;;;;;;;;;25.29;51.85;100692.13;7398974;19;1729;-37
2023/09/14 11:28:04;;;;;;;;;;;;;;;25.33;51.80;100674.50;7384777;19;1779;-37
2023/09/14 11:30:33;;;;;;;;;;;;;;;25.33;51.67;100659.09;7397016;19;1373;-37
2023/09/14 11:33:05;;;;;;;;;;;;;;;25.32;51.75;100673.63;7398839;19;1819;-37
2023/09/14 11:35:37;;;;;;;;;;;;;;;25.33;51.65;100675.34;7399652;19;1625;-37
2023/09/14 11:38:07;;;;;;;;;;;;;;;25.32;51.74;100662.81;7398477;19;1445;-37
2023/09/14 11:40:35;;;;;;;;;;;;;;;25.30;51.67;100659.44;7396819;19;1595;-37
2023/09/14 11:43:20;;;;;;;;;;;;;;;25.36;51.87;100674.97;7397574;19;1873;-37
2023/09/14 11:45:49;;;;;;;;;;;;;;;25.37;51.61;100668.53;7398899;19;1660;-37
2023/09/14 11:48:20;;;;;;;;;;;;;;;25.30;51.95;100659.44;7396867;19;1766;-37
2023/09/14 11:50:50;;;;;;;;;;;;;;;25.33;51.69;100677.22;7398093;19;1573;-37
2023/09/14 11:53:20;;;;;;;;;;;;;;;25.33;51.95;100659.09;7399139;19;1054;-37
2023/09/14 11:55:48;;;;;;;;;;;;;;;25.33;51.90;100653.69;7397121;19;1550;-37
2023/09/14 11:58:17;;;;;;;;;;;;;;;25.34;51.73;100660.78;7397605;19;1685;-37
2023/09/14 12:00:47;;;;;;;;;;;;;;;25.33;51.84;100664.50;7395851;19;1525;-37
2023/09/14 12:03:15;;;;;;;;;;;;;;;25.34;52.09;100660.78;7397804;19;1850;-37
2023/09/14 12:05:46;;;;;;;;;;;;;;;25.34;51.92;100655.34;7397953;19;1879;-37
2023/09/14 12:08:15;;;;;;;;;;;;;;;25.35;51.97;100657.06;7394499;19;1879;-37
2023/09/14 12:10:44;;;;;;;;;;;;;;;25.31;51.92;100650.31;7396609;19;1546;-37
2023/09/14 12:13:13;;;;;;;;;;;;;;;25.33;51.99;100648.28;7390690;19;1545;-37
2023/09/14 12:15:42;;;;;;;;;;;;;;;25.32;51.92;100657.41;7391989;19;1721;-37
2023/09/14 12:18:10;;;;;;;;;;;;;;;25.30;52.04;100648.63;7393802;19;1807;-37
2023/09/14 12:20:41;;;;;;;;;;;;;;;25.32;52.10;100646.56;7392872;19;1732;-37
2023/09/14 12:23:12;;;;;;;;;;;;;;;25.31;52.11;100638.66;7394455;19;1834;-37
2023/09/14 12:25:41;;;;;;;;;;;;;;;25.28;52.09;100639.84;7394141;19;1803;-37
2023/09/14 12:31:05;;;;;;;;;;;;;;;25.29;52.09;100638.00;7398276;19;1707;-37
2023/09/14 12:33:33;;;;;;;;;;;;;;;25.29;52.18;100643.41;7397864;19;1838;-37
2023/09/14 12:36:02;;;;;;;;;;;;;;;25.27;52.00;100632.75;7397240;19;1502;-37
2023/09/14 12:38:35;;;;;;;;;;;;;;;25.28;52.05;100634.44;7396323;19;1560;-37
2023/09/14 12:41:05;;;;;;;;;;;;;;;25.27;52.00;100635.47;7396387;19;1952;-37
2023/09/14 12:43:34;;;;;;;;;;;;;;;25.26;52.13;100630.22;7396268;19;1851;-37
2023/09/14 12:46:02;;;;;;;;;;;;;;;25.25;52.24;100626.69;7397090;19;1470;-36
2023/09/14 12:48:31;;;;;;;;;;;;;;;25.27;52.26;100626.47;7395031;19;1858;-37
2023/09/14 12:51:00;;;;;;;;;;;;;;;25.26;52.04;100643.75;7395313;19;1402;-36
2023/09/14 12:53:28;;;;;;;;;;;;;;;25.24;52.09;100619.56;7396270;19;1719;-37
2023/09/14 12:55:59;;;;;;;;;;;;;;;25.27;52.10;100619.22;7395545;19;2077;-37
2023/09/14 12:58:27;;;;;;;;;;;;;;;25.28;52.19;100623.59;7396933;19;1847;-37
2023/09/14 13:00:55;;;;;;;;;;;;;;;25.29;52.05;100625.31;7395631;19;1828;-37